sensor_id;sensor_type;location;lat;lon;timestamp;temperature;humidity
66312;HTU21D;53114;51.138;6.008;2024-03-02T00:00:51;9.55;74.92
66312;HTU21D;53114;51.138;6.008;2024-03-02T00:03:18;9.61;74.64
66312;HTU21D;53114;51.138;6.008;2024-03-02T00:05:49;9.60;72.93
66312;HTU21D;53114;51.138;6.008;2024-03-02T00:08:23;9.67;74.43
66312;HTU21D;53114;51.138;6.008;2024-03-02T00:10:50;9.71;74.10
66312;HTU21D;53114;51.138;6.008;2024-03-02T00:13:16;9.70;71.92
66312;HTU21D;53114;51.138;6.008;2024-03-02T00:15:49;9.82;71.56
66312;HTU21D;53114;51.138;6.008;2024-03-02T00:20:47;10.01;70.18
66312;HTU21D;53114;51.138;6.008;2024-03-02T00:23:16;10.00;67.51
66312;HTU21D;53114;51.138;6.008;2024-03-02T00:25:48;10.19;71.19
66312;HTU21D;53114;51.138;6.008;2024-03-02T00:28:17;10.27;70.79
66312;HTU21D;53114;51.138;6.008;2024-03-02T00:30:58;10.38;70.78
66312;HTU21D;53114;51.138;6.008;2024-03-02T00:33:27;10.26;69.06
66312;HTU21D;53114;51.138;6.008;2024-03-02T00:35:54;10.33;69.94
66312;HTU21D;53114;51.138;6.008;2024-03-02T00:38:20;10.34;70.36
66312;HTU21D;53114;51.138;6.008;2024-03-02T00:40:46;10.31;70.51
66312;HTU21D;53114;51.138;6.008;2024-03-02T00:46:02;10.18;68.97
66312;HTU21D;53114;51.138;6.008;2024-03-02T00:48:29;10.31;69.14
66312;HTU21D;53114;51.138;6.008;2024-03-02T00:50:57;10.42;69.93
66312;HTU21D;53114;51.138;6.008;2024-03-02T00:53:24;10.44;69.73
66312;HTU21D;53114;51.138;6.008;2024-03-02T00:55:52;10.55;69.69
66312;HTU21D;53114;51.138;6.008;2024-03-02T00:58:18;10.57;69.36
66312;HTU21D;53114;51.138;6.008;2024-03-02T01:00:44;10.59;69.06
66312;HTU21D;53114;51.138;6.008;2024-03-02T01:03:10;10.66;68.82
66312;HTU21D;53114;51.138;6.008;2024-03-02T01:05:36;10.72;68.72
66312;HTU21D;53114;51.138;6.008;2024-03-02T01:08:02;10.74;68.33
66312;HTU21D;53114;51.138;6.008;2024-03-02T01:10:28;10.62;65.93
66312;HTU21D;53114;51.138;6.008;2024-03-02T01:12:54;10.66;67.21
66312;HTU21D;53114;51.138;6.008;2024-03-02T01:15:20;10.74;68.07
66312;HTU21D;53114;51.138;6.008;2024-03-02T01:17:46;10.60;67.28
66312;HTU21D;53114;51.138;6.008;2024-03-02T01:20:12;10.59;67.97
66312;HTU21D;53114;51.138;6.008;2024-03-02T01:22:38;10.64;68.23
66312;HTU21D;53114;51.138;6.008;2024-03-02T01:25:04;10.72;67.76
66312;HTU21D;53114;51.138;6.008;2024-03-02T01:27:30;10.66;68.93
66312;HTU21D;53114;51.138;6.008;2024-03-02T01:29:56;10.71;69.56
66312;HTU21D;53114;51.138;6.008;2024-03-02T01:32:22;10.65;70.90
66312;HTU21D;53114;51.138;6.008;2024-03-02T01:34:47;10.44;72.59
66312;HTU21D;53114;51.138;6.008;2024-03-02T01:37:13;10.25;76.98
66312;HTU21D;53114;51.138;6.008;2024-03-02T01:39:39;10.04;79.64
66312;HTU21D;53114;51.138;6.008;2024-03-02T01:42:05;9.90;79.57
66312;HTU21D;53114;51.138;6.008;2024-03-02T01:44:31;9.80;81.56
66312;HTU21D;53114;51.138;6.008;2024-03-02T01:46:57;9.72;83.90
66312;HTU21D;53114;51.138;6.008;2024-03-02T01:49:22;9.64;85.06
66312;HTU21D;53114;51.138;6.008;2024-03-02T01:51:48;9.52;88.48
66312;HTU21D;53114;51.138;6.008;2024-03-02T01:54:14;9.35;90.89
66312;HTU21D;53114;51.138;6.008;2024-03-02T01:56:40;9.38;89.18
66312;HTU21D;53114;51.138;6.008;2024-03-02T01:59:06;9.33;93.39
66312;HTU21D;53114;51.138;6.008;2024-03-02T02:01:32;9.23;95.37
66312;HTU21D;53114;51.138;6.008;2024-03-02T02:03:58;9.21;91.69
66312;HTU21D;53114;51.138;6.008;2024-03-02T02:06:24;9.12;94.44
66312;HTU21D;53114;51.138;6.008;2024-03-02T02:08:50;9.05;100.03
66312;HTU21D;53114;51.138;6.008;2024-03-02T02:11:16;9.09;92.91
66312;HTU21D;53114;51.138;6.008;2024-03-02T02:13:42;9.07;93.86
66312;HTU21D;53114;51.138;6.008;2024-03-02T02:16:09;8.98;93.88
66312;HTU21D;53114;51.138;6.008;2024-03-02T02:18:35;9.00;92.70
66312;HTU21D;53114;51.138;6.008;2024-03-02T02:21:03;8.96;93.75
66312;HTU21D;53114;51.138;6.008;2024-03-02T02:23:29;9.00;94.85
66312;HTU21D;53114;51.138;6.008;2024-03-02T02:25:55;8.81;89.88
66312;HTU21D;53114;51.138;6.008;2024-03-02T02:28:21;8.81;91.41
66312;HTU21D;53114;51.138;6.008;2024-03-02T02:30:47;8.90;89.99
66312;HTU21D;53114;51.138;6.008;2024-03-02T02:33:13;8.82;89.54
66312;HTU21D;53114;51.138;6.008;2024-03-02T02:35:39;8.72;91.24
66312;HTU21D;53114;51.138;6.008;2024-03-02T02:38:05;8.65;91.76
66312;HTU21D;53114;51.138;6.008;2024-03-02T02:40:32;8.53;93.80
66312;HTU21D;53114;51.138;6.008;2024-03-02T02:42:58;8.59;95.12
66312;HTU21D;53114;51.138;6.008;2024-03-02T02:45:27;8.55;93.92
66312;HTU21D;53114;51.138;6.008;2024-03-02T02:47:53;8.59;92.00
66312;HTU21D;53114;51.138;6.008;2024-03-02T02:50:18;8.53;92.89
66312;HTU21D;53114;51.138;6.008;2024-03-02T02:52:44;8.47;94.49
66312;HTU21D;53114;51.138;6.008;2024-03-02T02:55:12;8.44;96.40
66312;HTU21D;53114;51.138;6.008;2024-03-02T02:57:42;8.37;94.52
66312;HTU21D;53114;51.138;6.008;2024-03-02T03:00:11;8.31;97.29
66312;HTU21D;53114;51.138;6.008;2024-03-02T03:02:41;8.31;95.68
66312;HTU21D;53114;51.138;6.008;2024-03-02T03:05:09;8.32;94.94
66312;HTU21D;53114;51.138;6.008;2024-03-02T03:07:35;8.33;94.50
66312;HTU21D;53114;51.138;6.008;2024-03-02T03:10:03;8.27;96.59
66312;HTU21D;53114;51.138;6.008;2024-03-02T03:12:30;8.22;95.65
66312;HTU21D;53114;51.138;6.008;2024-03-02T03:14:59;8.28;97.09
66312;HTU21D;53114;51.138;6.008;2024-03-02T03:17:26;8.30;94.58
66312;HTU21D;53114;51.138;6.008;2024-03-02T03:19:52;8.38;93.53
66312;HTU21D;53114;51.138;6.008;2024-03-02T03:22:19;8.44;93.18
66312;HTU21D;53114;51.138;6.008;2024-03-02T03:24:44;8.39;94.86
66312;HTU21D;53114;51.138;6.008;2024-03-02T03:27:11;8.34;95.07
66312;HTU21D;53114;51.138;6.008;2024-03-02T03:29:37;8.31;97.30
66312;HTU21D;53114;51.138;6.008;2024-03-02T03:32:03;8.31;96.32
66312;HTU21D;53114;51.138;6.008;2024-03-02T03:34:33;8.42;93.54
66312;HTU21D;53114;51.138;6.008;2024-03-02T03:36:59;8.49;93.45
66312;HTU21D;53114;51.138;6.008;2024-03-02T03:39:24;8.47;94.65
66312;HTU21D;53114;51.138;6.008;2024-03-02T03:41:50;8.56;94.52
66312;HTU21D;53114;51.138;6.008;2024-03-02T03:44:16;8.57;94.94
66312;HTU21D;53114;51.138;6.008;2024-03-02T03:46:42;8.55;95.14
66312;HTU21D;53114;51.138;6.008;2024-03-02T03:49:08;8.51;95.18
66312;HTU21D;53114;51.138;6.008;2024-03-02T03:51:34;8.56;94.78
66312;HTU21D;53114;51.138;6.008;2024-03-02T03:54:01;8.59;94.54
66312;HTU21D;53114;51.138;6.008;2024-03-02T03:56:27;8.62;94.59
66312;HTU21D;53114;51.138;6.008;2024-03-02T03:58:52;8.64;95.08
66312;HTU21D;53114;51.138;6.008;2024-03-02T04:01:18;8.65;95.46
66312;HTU21D;53114;51.138;6.008;2024-03-02T04:03:44;8.70;95.23
66312;HTU21D;53114;51.138;6.008;2024-03-02T04:06:10;8.70;95.70
66312;HTU21D;53114;51.138;6.008;2024-03-02T04:08:36;8.67;96.67
66312;HTU21D;53114;51.138;6.008;2024-03-02T04:11:02;8.71;95.97
66312;HTU21D;53114;51.138;6.008;2024-03-02T04:13:28;8.68;96.36
66312;HTU21D;53114;51.138;6.008;2024-03-02T04:15:54;8.73;96.39
66312;HTU21D;53114;51.138;6.008;2024-03-02T04:18:20;8.72;96.78
66312;HTU21D;53114;51.138;6.008;2024-03-02T04:20:46;8.80;96.62
66312;HTU21D;53114;51.138;6.008;2024-03-02T04:23:12;8.83;96.69
66312;HTU21D;53114;51.138;6.008;2024-03-02T04:25:38;8.85;96.47
66312;HTU21D;53114;51.138;6.008;2024-03-02T04:28:04;8.83;96.98
66312;HTU21D;53114;51.138;6.008;2024-03-02T04:30:29;8.80;97.42
66312;HTU21D;53114;51.138;6.008;2024-03-02T04:32:55;8.80;98.65
66312;HTU21D;53114;51.138;6.008;2024-03-02T04:35:21;8.78;98.95
66312;HTU21D;53114;51.138;6.008;2024-03-02T04:37:47;8.75;99.54
66312;HTU21D;53114;51.138;6.008;2024-03-02T04:40:13;8.66;100.76
66312;HTU21D;53114;51.138;6.008;2024-03-02T04:42:39;8.64;102.20
66312;HTU21D;53114;51.138;6.008;2024-03-02T04:45:05;8.60;103.49
66312;HTU21D;53114;51.138;6.008;2024-03-02T04:47:31;8.52;104.27
66312;HTU21D;53114;51.138;6.008;2024-03-02T04:49:56;8.51;105.08
66312;HTU21D;53114;51.138;6.008;2024-03-02T04:52:22;8.49;105.19
66312;HTU21D;53114;51.138;6.008;2024-03-02T04:54:48;8.47;105.33
66312;HTU21D;53114;51.138;6.008;2024-03-02T04:57:32;8.44;106.05
66312;HTU21D;53114;51.138;6.008;2024-03-02T04:59:58;8.42;106.37
66312;HTU21D;53114;51.138;6.008;2024-03-02T05:02:24;8.44;106.58
66312;HTU21D;53114;51.138;6.008;2024-03-02T05:04:50;8.44;106.50
66312;HTU21D;53114;51.138;6.008;2024-03-02T05:07:17;8.42;107.04
66312;HTU21D;53114;51.138;6.008;2024-03-02T05:09:42;8.42;107.30
66312;HTU21D;53114;51.138;6.008;2024-03-02T05:12:09;8.36;107.69
66312;HTU21D;53114;51.138;6.008;2024-03-02T05:14:48;8.32;108.67
66312;HTU21D;53114;51.138;6.008;2024-03-02T05:17:15;8.34;108.82
66312;HTU21D;53114;51.138;6.008;2024-03-02T05:19:41;8.33;108.95
66312;HTU21D;53114;51.138;6.008;2024-03-02T05:22:07;8.34;108.97
66312;HTU21D;53114;51.138;6.008;2024-03-02T05:24:33;8.33;109.17
66312;HTU21D;53114;51.138;6.008;2024-03-02T05:26:58;8.32;109.30
66312;HTU21D;53114;51.138;6.008;2024-03-02T05:29:25;8.30;109.30
66312;HTU21D;53114;51.138;6.008;2024-03-02T05:31:51;8.31;109.26
66312;HTU21D;53114;51.138;6.008;2024-03-02T05:34:16;8.27;109.72
66312;HTU21D;53114;51.138;6.008;2024-03-02T05:36:42;8.29;109.76
66312;HTU21D;53114;51.138;6.008;2024-03-02T05:39:08;8.31;110.13
66312;HTU21D;53114;51.138;6.008;2024-03-02T05:41:36;8.26;109.66
66312;HTU21D;53114;51.138;6.008;2024-03-02T05:44:01;8.31;108.85
66312;HTU21D;53114;51.138;6.008;2024-03-02T05:46:27;8.34;107.78
66312;HTU21D;53114;51.138;6.008;2024-03-02T05:48:53;8.34;107.30
66312;HTU21D;53114;51.138;6.008;2024-03-02T05:51:19;8.33;106.72
66312;HTU21D;53114;51.138;6.008;2024-03-02T05:53:45;8.36;105.76
66312;HTU21D;53114;51.138;6.008;2024-03-02T05:56:11;8.34;105.06
66312;HTU21D;53114;51.138;6.008;2024-03-02T05:58:38;8.35;104.74
66312;HTU21D;53114;51.138;6.008;2024-03-02T06:01:19;8.34;104.51
66312;HTU21D;53114;51.138;6.008;2024-03-02T06:03:45;8.38;103.15
66312;HTU21D;53114;51.138;6.008;2024-03-02T06:06:11;8.42;101.67
66312;HTU21D;53114;51.138;6.008;2024-03-02T06:08:38;8.39;100.38
66312;HTU21D;53114;51.138;6.008;2024-03-02T06:11:04;8.46;99.81
66312;HTU21D;53114;51.138;6.008;2024-03-02T06:13:31;8.52;98.68
66312;HTU21D;53114;51.138;6.008;2024-03-02T06:15:57;8.58;97.65
66312;HTU21D;53114;51.138;6.008;2024-03-02T06:18:23;8.64;96.80
66312;HTU21D;53114;51.138;6.008;2024-03-02T06:20:48;8.63;96.81
66312;HTU21D;53114;51.138;6.008;2024-03-02T06:23:14;8.64;97.26
66312;HTU21D;53114;51.138;6.008;2024-03-02T06:25:40;8.67;96.54
66312;HTU21D;53114;51.138;6.008;2024-03-02T06:28:06;8.66;95.46
66312;HTU21D;53114;51.138;6.008;2024-03-02T06:30:33;8.70;94.05
66312;HTU21D;53114;51.138;6.008;2024-03-02T06:32:59;8.62;93.75
66312;HTU21D;53114;51.138;6.008;2024-03-02T06:35:24;8.58;93.90
66312;HTU21D;53114;51.138;6.008;2024-03-02T06:37:50;8.52;94.01
66312;HTU21D;53114;51.138;6.008;2024-03-02T06:40:16;8.52;92.78
66312;HTU21D;53114;51.138;6.008;2024-03-02T06:42:42;8.49;92.52
66312;HTU21D;53114;51.138;6.008;2024-03-02T06:45:08;8.50;92.44
66312;HTU21D;53114;51.138;6.008;2024-03-02T06:47:34;8.49;92.08
66312;HTU21D;53114;51.138;6.008;2024-03-02T06:50:00;8.50;92.05
66312;HTU21D;53114;51.138;6.008;2024-03-02T06:52:26;8.46;90.52
66312;HTU21D;53114;51.138;6.008;2024-03-02T06:54:52;8.44;91.16
66312;HTU21D;53114;51.138;6.008;2024-03-02T06:57:18;8.39;91.25
66312;HTU21D;53114;51.138;6.008;2024-03-02T06:59:45;8.35;91.41
66312;HTU21D;53114;51.138;6.008;2024-03-02T07:02:11;8.26;90.91
66312;HTU21D;53114;51.138;6.008;2024-03-02T07:04:38;8.23;91.62
66312;HTU21D;53114;51.138;6.008;2024-03-02T07:07:04;8.21;91.55
66312;HTU21D;53114;51.138;6.008;2024-03-02T07:09:30;8.23;91.18
66312;HTU21D;53114;51.138;6.008;2024-03-02T07:11:56;8.26;90.93
66312;HTU21D;53114;51.138;6.008;2024-03-02T07:14:22;8.24;90.55
66312;HTU21D;53114;51.138;6.008;2024-03-02T07:17:03;8.22;90.02
66312;HTU21D;53114;51.138;6.008;2024-03-02T07:19:29;8.21;89.78
66312;HTU21D;53114;51.138;6.008;2024-03-02T07:21:55;8.20;89.89
66312;HTU21D;53114;51.138;6.008;2024-03-02T07:24:20;8.23;89.59
66312;HTU21D;53114;51.138;6.008;2024-03-02T07:26:46;8.37;89.61
66312;HTU21D;53114;51.138;6.008;2024-03-02T07:29:12;8.61;88.86
66312;HTU21D;53114;51.138;6.008;2024-03-02T07:31:38;8.78;87.35
66312;HTU21D;53114;51.138;6.008;2024-03-02T07:34:04;8.91;85.80
66312;HTU21D;53114;51.138;6.008;2024-03-02T07:36:30;8.93;83.27
66312;HTU21D;53114;51.138;6.008;2024-03-02T07:38:56;9.07;84.44
66312;HTU21D;53114;51.138;6.008;2024-03-02T07:41:22;9.19;83.52
66312;HTU21D;53114;51.138;6.008;2024-03-02T07:43:48;9.21;82.55
66312;HTU21D;53114;51.138;6.008;2024-03-02T07:46:14;9.30;82.46
66312;HTU21D;53114;51.138;6.008;2024-03-02T07:48:40;9.38;82.01
66312;HTU21D;53114;51.138;6.008;2024-03-02T07:51:08;9.50;81.63
66312;HTU21D;53114;51.138;6.008;2024-03-02T07:53:33;9.69;81.51
66312;HTU21D;53114;51.138;6.008;2024-03-02T07:55:59;9.94;80.28
66312;HTU21D;53114;51.138;6.008;2024-03-02T07:58:28;10.28;78.47
66312;HTU21D;53114;51.138;6.008;2024-03-02T08:00:55;10.54;76.41
66312;HTU21D;53114;51.138;6.008;2024-03-02T08:03:21;10.72;75.06
66312;HTU21D;53114;51.138;6.008;2024-03-02T08:05:47;10.78;74.18
66312;HTU21D;53114;51.138;6.008;2024-03-02T08:08:13;10.79;70.77
66312;HTU21D;53114;51.138;6.008;2024-03-02T08:10:39;10.96;72.67
66312;HTU21D;53114;51.138;6.008;2024-03-02T08:13:05;11.09;72.20
66312;HTU21D;53114;51.138;6.008;2024-03-02T08:15:31;11.13;71.62
66312;HTU21D;53114;51.138;6.008;2024-03-02T08:17:57;10.98;69.00
66312;HTU21D;53114;51.138;6.008;2024-03-02T08:20:24;10.97;69.15
66312;HTU21D;53114;51.138;6.008;2024-03-02T08:22:50;11.22;70.84
66312;HTU21D;53114;51.138;6.008;2024-03-02T08:25:16;11.43;69.71
66312;HTU21D;53114;51.138;6.008;2024-03-02T08:27:43;11.42;67.70
66312;HTU21D;53114;51.138;6.008;2024-03-02T08:30:09;11.41;69.13
66312;HTU21D;53114;51.138;6.008;2024-03-02T08:32:36;11.48;69.06
66312;HTU21D;53114;51.138;6.008;2024-03-02T08:35:02;11.73;69.10
66312;HTU21D;53114;51.138;6.008;2024-03-02T08:37:28;12.26;68.68
66312;HTU21D;53114;51.138;6.008;2024-03-02T08:39:54;12.89;67.31
66312;HTU21D;53114;51.138;6.008;2024-03-02T08:42:21;13.43;65.06
66312;HTU21D;53114;51.138;6.008;2024-03-02T08:44:48;13.99;63.89
66312;HTU21D;53114;51.138;6.008;2024-03-02T08:47:14;14.56;59.06
66312;HTU21D;53114;51.138;6.008;2024-03-02T08:49:40;14.74;56.28
66312;HTU21D;53114;51.138;6.008;2024-03-02T08:52:06;14.95;57.48
66312;HTU21D;53114;51.138;6.008;2024-03-02T08:54:32;15.38;56.44
66312;HTU21D;53114;51.138;6.008;2024-03-02T08:56:59;15.71;55.78
66312;HTU21D;53114;51.138;6.008;2024-03-02T08:59:25;15.82;56.09
66312;HTU21D;53114;51.138;6.008;2024-03-02T09:01:53;16.22;54.94
66312;HTU21D;53114;51.138;6.008;2024-03-02T09:04:19;16.54;53.32
66312;HTU21D;53114;51.138;6.008;2024-03-02T09:06:45;16.08;64.64
66312;HTU21D;53114;51.138;6.008;2024-03-02T09:09:11;14.96;55.23
66312;HTU21D;53114;51.138;6.008;2024-03-02T09:11:37;14.94;57.16
66312;HTU21D;53114;51.138;6.008;2024-03-02T09:14:03;15.00;59.11
66312;HTU21D;53114;51.138;6.008;2024-03-02T09:16:29;15.55;58.46
66312;HTU21D;53114;51.138;6.008;2024-03-02T09:18:56;16.31;52.30
66312;HTU21D;53114;51.138;6.008;2024-03-02T09:21:22;16.98;53.80
66312;HTU21D;53114;51.138;6.008;2024-03-02T09:23:48;17.72;54.99
66312;HTU21D;53114;51.138;6.008;2024-03-02T09:26:14;18.40;50.03
66312;HTU21D;53114;51.138;6.008;2024-03-02T09:28:43;18.57;49.11
66312;HTU21D;53114;51.138;6.008;2024-03-02T09:31:09;18.19;46.08
66312;HTU21D;53114;51.138;6.008;2024-03-02T09:33:35;17.97;41.39
66312;HTU21D;53114;51.138;6.008;2024-03-02T09:36:01;17.95;45.99
66312;HTU21D;53114;51.138;6.008;2024-03-02T09:38:27;17.54;45.38
66312;HTU21D;53114;51.138;6.008;2024-03-02T09:40:53;17.53;45.64
66312;HTU21D;53114;51.138;6.008;2024-03-02T09:43:19;17.60;44.03
66312;HTU21D;53114;51.138;6.008;2024-03-02T09:45:45;17.83;46.79
66312;HTU21D;53114;51.138;6.008;2024-03-02T09:48:11;18.22;46.87
66312;HTU21D;53114;51.138;6.008;2024-03-02T09:50:37;18.92;46.16
66312;HTU21D;53114;51.138;6.008;2024-03-02T09:53:04;19.54;45.82
66312;HTU21D;53114;51.138;6.008;2024-03-02T09:55:30;20.40;42.65
66312;HTU21D;53114;51.138;6.008;2024-03-02T09:57:56;21.21;41.98
66312;HTU21D;53114;51.138;6.008;2024-03-02T10:00:22;21.57;41.27
66312;HTU21D;53114;51.138;6.008;2024-03-02T10:02:48;21.19;36.43
66312;HTU21D;53114;51.138;6.008;2024-03-02T10:05:24;21.00;37.04
66312;HTU21D;53114;51.138;6.008;2024-03-02T10:08:03;20.87;39.94
66312;HTU21D;53114;51.138;6.008;2024-03-02T10:10:37;20.53;37.68
66312;HTU21D;53114;51.138;6.008;2024-03-02T10:13:12;20.33;40.33
66312;HTU21D;53114;51.138;6.008;2024-03-02T10:15:40;20.40;40.57
66312;HTU21D;53114;51.138;6.008;2024-03-02T10:18:11;20.56;38.94
66312;HTU21D;53114;51.138;6.008;2024-03-02T10:20:41;20.48;39.10
66312;HTU21D;53114;51.138;6.008;2024-03-02T10:23:15;20.89;40.11
66312;HTU21D;53114;51.138;6.008;2024-03-02T10:25:43;21.07;37.26
66312;HTU21D;53114;51.138;6.008;2024-03-02T10:28:10;20.89;38.91
66312;HTU21D;53114;51.138;6.008;2024-03-02T10:30:36;20.98;34.65
66312;HTU21D;53114;51.138;6.008;2024-03-02T10:33:03;21.31;37.44
66312;HTU21D;53114;51.138;6.008;2024-03-02T10:35:32;21.21;38.10
66312;HTU21D;53114;51.138;6.008;2024-03-02T10:38:04;21.24;37.05
66312;HTU21D;53114;51.138;6.008;2024-03-02T10:40:31;21.08;34.57
66312;HTU21D;53114;51.138;6.008;2024-03-02T10:42:59;20.81;36.27
66312;HTU21D;53114;51.138;6.008;2024-03-02T10:45:27;20.62;38.82
66312;HTU21D;53114;51.138;6.008;2024-03-02T10:47:54;20.60;38.64
66312;HTU21D;53114;51.138;6.008;2024-03-02T10:50:21;20.50;38.04
66312;HTU21D;53114;51.138;6.008;2024-03-02T10:52:47;20.21;37.32
66312;HTU21D;53114;51.138;6.008;2024-03-02T10:55:13;20.26;37.66
66312;HTU21D;53114;51.138;6.008;2024-03-02T10:57:53;20.48;36.49
66312;HTU21D;53114;51.138;6.008;2024-03-02T11:00:20;20.41;35.73
66312;HTU21D;53114;51.138;6.008;2024-03-02T11:02:56;20.46;38.25
66312;HTU21D;53114;51.138;6.008;2024-03-02T11:05:34;19.96;37.80
66312;HTU21D;53114;51.138;6.008;2024-03-02T11:08:07;19.74;37.79
66312;HTU21D;53114;51.138;6.008;2024-03-02T11:10:36;19.76;39.94
66312;HTU21D;53114;51.138;6.008;2024-03-02T11:13:09;20.20;38.81
66312;HTU21D;53114;51.138;6.008;2024-03-02T11:15:37;20.32;38.21
66312;HTU21D;53114;51.138;6.008;2024-03-02T11:18:06;20.27;36.56
66312;HTU21D;53114;51.138;6.008;2024-03-02T11:20:39;19.77;38.18
66312;HTU21D;53114;51.138;6.008;2024-03-02T11:23:07;19.22;40.67
66312;HTU21D;53114;51.138;6.008;2024-03-02T11:25:34;18.85;41.78
66312;HTU21D;53114;51.138;6.008;2024-03-02T11:28:07;18.67;38.72
66312;HTU21D;53114;51.138;6.008;2024-03-02T11:33:05;18.04;40.45
66312;HTU21D;53114;51.138;6.008;2024-03-02T11:35:35;17.29;38.49
66312;HTU21D;53114;51.138;6.008;2024-03-02T11:38:02;17.28;41.75
66312;HTU21D;53114;51.138;6.008;2024-03-02T11:40:30;17.23;43.66
66312;HTU21D;53114;51.138;6.008;2024-03-02T11:43:00;17.19;43.94
66312;HTU21D;53114;51.138;6.008;2024-03-02T11:45:26;17.08;43.06
66312;HTU21D;53114;51.138;6.008;2024-03-02T11:47:57;16.77;44.03
66312;HTU21D;53114;51.138;6.008;2024-03-02T11:52:58;16.70;45.17
66312;HTU21D;53114;51.138;6.008;2024-03-02T11:55:26;16.40;41.27
66312;HTU21D;53114;51.138;6.008;2024-03-02T11:57:53;16.42;45.17
66312;HTU21D;53114;51.138;6.008;2024-03-02T12:00:20;16.56;46.15
66312;HTU21D;53114;51.138;6.008;2024-03-02T12:02:47;16.58;41.87
66312;HTU21D;53114;51.138;6.008;2024-03-02T12:05:26;16.55;42.68
66312;HTU21D;53114;51.138;6.008;2024-03-02T12:07:57;16.47;45.85
66312;HTU21D;53114;51.138;6.008;2024-03-02T12:10:24;16.28;46.22
66312;HTU21D;53114;51.138;6.008;2024-03-02T12:13:19;16.28;47.00
66312;HTU21D;53114;51.138;6.008;2024-03-02T12:15:45;16.33;47.47
66312;HTU21D;53114;51.138;6.008;2024-03-02T12:18:11;16.25;45.02
66312;HTU21D;53114;51.138;6.008;2024-03-02T12:20:37;16.36;47.67
66312;HTU21D;53114;51.138;6.008;2024-03-02T12:23:04;16.30;46.80
66312;HTU21D;53114;51.138;6.008;2024-03-02T12:25:31;16.43;47.41
66312;HTU21D;53114;51.138;6.008;2024-03-02T12:28:00;16.58;45.39
66312;HTU21D;53114;51.138;6.008;2024-03-02T12:30:29;16.58;46.97
66312;HTU21D;53114;51.138;6.008;2024-03-02T12:32:58;16.51;46.96
66312;HTU21D;53114;51.138;6.008;2024-03-02T12:35:25;16.49;45.26
66312;HTU21D;53114;51.138;6.008;2024-03-02T12:37:52;16.46;47.30
66312;HTU21D;53114;51.138;6.008;2024-03-02T12:40:20;16.36;47.82
66312;HTU21D;53114;51.138;6.008;2024-03-02T12:42:49;16.30;48.09
66312;HTU21D;53114;51.138;6.008;2024-03-02T12:45:16;16.35;46.47
66312;HTU21D;53114;51.138;6.008;2024-03-02T12:47:42;16.39;48.16
66312;HTU21D;53114;51.138;6.008;2024-03-02T12:50:09;16.49;48.41
66312;HTU21D;53114;51.138;6.008;2024-03-02T12:52:35;16.57;45.32
66312;HTU21D;53114;51.138;6.008;2024-03-02T12:55:04;16.67;48.07
66312;HTU21D;53114;51.138;6.008;2024-03-02T12:57:32;16.73;47.63
66312;HTU21D;53114;51.138;6.008;2024-03-02T13:00:04;16.66;49.00
66312;HTU21D;53114;51.138;6.008;2024-03-02T13:02:42;16.70;49.97
66312;HTU21D;53114;51.138;6.008;2024-03-02T13:05:08;16.78;49.05
66312;HTU21D;53114;51.138;6.008;2024-03-02T13:07:38;16.76;46.05
66312;HTU21D;53114;51.138;6.008;2024-03-02T13:10:05;16.82;48.17
66312;HTU21D;53114;51.138;6.008;2024-03-02T13:12:32;16.88;47.16
66312;HTU21D;53114;51.138;6.008;2024-03-02T13:14:59;17.04;47.04
66312;HTU21D;53114;51.138;6.008;2024-03-02T13:17:24;17.08;46.69
66312;HTU21D;53114;51.138;6.008;2024-03-02T13:19:57;16.99;49.04
66312;HTU21D;53114;51.138;6.008;2024-03-02T13:22:25;16.94;50.40
66312;HTU21D;53114;51.138;6.008;2024-03-02T13:24:52;16.91;48.74
66312;HTU21D;53114;51.138;6.008;2024-03-02T13:27:20;16.69;48.37
66312;HTU21D;53114;51.138;6.008;2024-03-02T13:29:47;16.42;47.97
66312;HTU21D;53114;51.138;6.008;2024-03-02T13:32:14;16.19;48.02
66312;HTU21D;53114;51.138;6.008;2024-03-02T13:34:40;16.20;49.46
66312;HTU21D;53114;51.138;6.008;2024-03-02T13:37:07;16.26;49.04
66312;HTU21D;53114;51.138;6.008;2024-03-02T13:39:33;16.39;49.33
66312;HTU21D;53114;51.138;6.008;2024-03-02T13:42:07;16.20;48.21
66312;HTU21D;53114;51.138;6.008;2024-03-02T13:44:34;16.00;46.64
66312;HTU21D;53114;51.138;6.008;2024-03-02T13:47:00;16.00;49.76
66312;HTU21D;53114;51.138;6.008;2024-03-02T13:49:26;15.81;49.31
66312;HTU21D;53114;51.138;6.008;2024-03-02T13:52:00;15.88;51.24
66312;HTU21D;53114;51.138;6.008;2024-03-02T13:54:29;15.83;49.85
66312;HTU21D;53114;51.138;6.008;2024-03-02T13:56:56;15.86;51.86
66312;HTU21D;53114;51.138;6.008;2024-03-02T13:59:26;15.95;50.63
66312;HTU21D;53114;51.138;6.008;2024-03-02T14:01:52;16.02;51.51
66312;HTU21D;53114;51.138;6.008;2024-03-02T14:04:18;16.18;51.50
66312;HTU21D;53114;51.138;6.008;2024-03-02T14:06:44;16.31;50.26
66312;HTU21D;53114;51.138;6.008;2024-03-02T14:09:12;16.48;50.16
66312;HTU21D;53114;51.138;6.008;2024-03-02T14:11:37;16.69;50.65
66312;HTU21D;53114;51.138;6.008;2024-03-02T14:14:03;16.76;49.60
66312;HTU21D;53114;51.138;6.008;2024-03-02T14:16:29;16.84;49.60
66312;HTU21D;53114;51.138;6.008;2024-03-02T14:18:55;16.90;49.13
66312;HTU21D;53114;51.138;6.008;2024-03-02T14:21:22;16.84;48.18
66312;HTU21D;53114;51.138;6.008;2024-03-02T14:23:47;16.65;47.09
66312;HTU21D;53114;51.138;6.008;2024-03-02T14:26:13;16.50;48.55
66312;HTU21D;53114;51.138;6.008;2024-03-02T14:28:42;16.56;49.98
66312;HTU21D;53114;51.138;6.008;2024-03-02T14:31:08;16.57;50.22
66312;HTU21D;53114;51.138;6.008;2024-03-02T14:33:33;16.49;50.05
66312;HTU21D;53114;51.138;6.008;2024-03-02T14:36:00;16.46;49.92
66312;HTU21D;53114;51.138;6.008;2024-03-02T14:38:26;16.32;48.83
66312;HTU21D;53114;51.138;6.008;2024-03-02T14:40:52;16.25;51.98
66312;HTU21D;53114;51.138;6.008;2024-03-02T14:43:18;16.19;51.61
66312;HTU21D;53114;51.138;6.008;2024-03-02T14:45:44;16.08;51.34
66312;HTU21D;53114;51.138;6.008;2024-03-02T14:48:10;16.12;52.35
66312;HTU21D;53114;51.138;6.008;2024-03-02T14:50:36;16.19;52.33
66312;HTU21D;53114;51.138;6.008;2024-03-02T14:53:02;16.20;52.69
66312;HTU21D;53114;51.138;6.008;2024-03-02T14:55:28;16.20;52.69
66312;HTU21D;53114;51.138;6.008;2024-03-02T14:57:54;16.13;52.65
66312;HTU21D;53114;51.138;6.008;2024-03-02T15:00:20;16.02;52.21
66312;HTU21D;53114;51.138;6.008;2024-03-02T15:02:46;16.06;52.76
66312;HTU21D;53114;51.138;6.008;2024-03-02T15:05:12;16.02;50.82
66312;HTU21D;53114;51.138;6.008;2024-03-02T15:07:38;15.99;52.63
66312;HTU21D;53114;51.138;6.008;2024-03-02T15:10:04;15.95;52.46
66312;HTU21D;53114;51.138;6.008;2024-03-02T15:12:31;15.88;53.43
66312;HTU21D;53114;51.138;6.008;2024-03-02T15:14:57;15.78;53.72
66312;HTU21D;53114;51.138;6.008;2024-03-02T15:17:23;15.58;53.82
66312;HTU21D;53114;51.138;6.008;2024-03-02T15:19:49;15.53;54.26
66312;HTU21D;53114;51.138;6.008;2024-03-02T15:22:15;15.41;54.51
66312;HTU21D;53114;51.138;6.008;2024-03-02T15:24:40;15.44;54.42
66312;HTU21D;53114;51.138;6.008;2024-03-02T15:27:06;15.44;54.88
66312;HTU21D;53114;51.138;6.008;2024-03-02T15:29:35;15.45;55.36